Cumberland, Rhode Island
Current Conditions -  °F | °C
As of 9:15 PM on Wednesday 17 Dec 2014 (Local Time) from KSFZ Reporting Station
Overcast Overcast  
Wind Chill: 35°   Ceiling: 5500
Heat Index: 41°   Visibility: 10mi
Dew Point: 28°   Wind: 10mph
Humidity: 61%   Direction: 270°W
Pressure: 29.74"   Gusts: 18mph
Location:  41.95°N, 71.42°W
Report Text: KSFZ 180215Z 27009G16KT 10SM BKN055 OVC085 05/M02 A2974 RMK AO1
Loading
Personal Weather Stations






























Interactive Weather Map New forecast layout! Learn more

10-Day Weather Forecast

Advertisements
Track Severe Weather on mobile